sensor_id;sensor_type;location;lat;lon;timestamp;P1;durP1;ratioP1;P2;durP2;ratioP2
52618;SDS011;38513;53.234;6.568;2023-03-14T00:02:13;29.48;;;7.20;;
52618;SDS011;38513;53.234;6.568;2023-03-14T00:04:39;32.45;;;6.70;;
52618;SDS011;38513;53.234;6.568;2023-03-14T00:07:05;30.33;;;6.93;;
52618;SDS011;38513;53.234;6.568;2023-03-14T00:09:31;32.50;;;6.80;;
52618;SDS011;38513;53.234;6.568;2023-03-14T00:11:57;29.25;;;6.70;;
52618;SDS011;38513;53.234;6.568;2023-03-14T00:14:24;29.10;;;6.15;;
52618;SDS011;38513;53.234;6.568;2023-03-14T00:16:50;30.67;;;7.15;;
52618;SDS011;38513;53.234;6.568;2023-03-14T00:19:16;28.00;;;6.15;;
52618;SDS011;38513;53.234;6.568;2023-03-14T00:21:42;28.05;;;6.55;;
52618;SDS011;38513;53.234;6.568;2023-03-14T00:24:08;26.30;;;6.70;;
52618;SDS011;38513;53.234;6.568;2023-03-14T00:26:34;31.48;;;6.47;;
52618;SDS011;38513;53.234;6.568;2023-03-14T00:29:00;25.42;;;5.97;;
52618;SDS011;38513;53.234;6.568;2023-03-14T00:31:26;27.35;;;6.60;;
52618;SDS011;38513;53.234;6.568;2023-03-14T00:33:53;25.20;;;5.85;;
52618;SDS011;38513;53.234;6.568;2023-03-14T00:36:19;24.52;;;5.88;;
52618;SDS011;38513;53.234;6.568;2023-03-14T00:38:46;23.17;;;5.82;;
52618;SDS011;38513;53.234;6.568;2023-03-14T00:41:14;25.55;;;6.15;;
52618;SDS011;38513;53.234;6.568;2023-03-14T00:43:41;23.67;;;5.72;;
52618;SDS011;38513;53.234;6.568;2023-03-14T00:46:07;23.65;;;5.53;;
52618;SDS011;38513;53.234;6.568;2023-03-14T00:48:36;23.85;;;6.25;;
52618;SDS011;38513;53.234;6.568;2023-03-14T00:51:03;25.35;;;6.10;;
52618;SDS011;38513;53.234;6.568;2023-03-14T00:53:30;26.55;;;5.95;;
52618;SDS011;38513;53.234;6.568;2023-03-14T00:55:56;29.40;;;6.13;;
52618;SDS011;38513;53.234;6.568;2023-03-14T00:58:22;26.33;;;6.00;;
52618;SDS011;38513;53.234;6.568;2023-03-14T01:00:48;26.75;;;6.35;;
52618;SDS011;38513;53.234;6.568;2023-03-14T01:03:15;26.23;;;5.82;;
52618;SDS011;38513;53.234;6.568;2023-03-14T01:05:41;25.30;;;5.85;;
52618;SDS011;38513;53.234;6.568;2023-03-14T01:08:07;21.13;;;5.57;;
52618;SDS011;38513;53.234;6.568;2023-03-14T01:10:34;23.67;;;5.65;;
52618;SDS011;38513;53.234;6.568;2023-03-14T01:13:00;22.65;;;5.85;;
52618;SDS011;38513;53.234;6.568;2023-03-14T01:15:26;22.08;;;6.15;;
52618;SDS011;38513;53.234;6.568;2023-03-14T01:17:53;23.42;;;5.53;;
52618;SDS011;38513;53.234;6.568;2023-03-14T01:20:19;23.63;;;5.65;;
52618;SDS011;38513;53.234;6.568;2023-03-14T01:22:45;22.15;;;5.50;;
52618;SDS011;38513;53.234;6.568;2023-03-14T01:25:12;20.50;;;5.50;;
52618;SDS011;38513;53.234;6.568;2023-03-14T01:27:38;21.08;;;4.88;;
52618;SDS011;38513;53.234;6.568;2023-03-14T01:30:05;21.27;;;5.30;;
52618;SDS011;38513;53.234;6.568;2023-03-14T01:32:33;22.60;;;5.72;;
52618;SDS011;38513;53.234;6.568;2023-03-14T01:34:59;24.07;;;5.10;;
52618;SDS011;38513;53.234;6.568;2023-03-14T01:37:25;19.85;;;4.88;;
52618;SDS011;38513;53.234;6.568;2023-03-14T01:39:51;18.48;;;5.20;;
52618;SDS011;38513;53.234;6.568;2023-03-14T01:42:17;18.37;;;5.13;;
52618;SDS011;38513;53.234;6.568;2023-03-14T01:44:53;18.45;;;4.63;;
52618;SDS011;38513;53.234;6.568;2023-03-14T01:47:20;20.10;;;4.93;;
52618;SDS011;38513;53.234;6.568;2023-03-14T01:49:46;21.05;;;4.88;;
52618;SDS011;38513;53.234;6.568;2023-03-14T01:52:47;20.13;;;5.00;;
52618;SDS011;38513;53.234;6.568;2023-03-14T01:55:09;20.05;;;4.43;;
52618;SDS011;38513;53.234;6.568;2023-03-14T01:57:37;17.70;;;4.05;;
52618;SDS011;38513;53.234;6.568;2023-03-14T02:00:05;19.10;;;4.93;;
52618;SDS011;38513;53.234;6.568;2023-03-14T02:02:38;18.85;;;4.22;;
52618;SDS011;38513;53.234;6.568;2023-03-14T02:05:05;18.90;;;4.47;;
52618;SDS011;38513;53.234;6.568;2023-03-14T02:07:33;18.15;;;4.32;;
52618;SDS011;38513;53.234;6.568;2023-03-14T02:10:01;19.67;;;4.28;;
52618;SDS011;38513;53.234;6.568;2023-03-14T02:12:27;22.25;;;4.30;;
52618;SDS011;38513;53.234;6.568;2023-03-14T02:14:53;18.90;;;4.00;;
52618;SDS011;38513;53.234;6.568;2023-03-14T02:17:20;16.73;;;3.80;;
52618;SDS011;38513;53.234;6.568;2023-03-14T02:22:17;15.45;;;4.00;;
52618;SDS011;38513;53.234;6.568;2023-03-14T02:24:49;17.13;;;3.58;;
52618;SDS011;38513;53.234;6.568;2023-03-14T02:27:19;16.52;;;3.65;;
52618;SDS011;38513;53.234;6.568;2023-03-14T02:32:15;18.83;;;3.95;;
52618;SDS011;38513;53.234;6.568;2023-03-14T02:34:42;16.48;;;3.60;;
52618;SDS011;38513;53.234;6.568;2023-03-14T02:37:09;17.83;;;3.97;;
52618;SDS011;38513;53.234;6.568;2023-03-14T02:39:40;17.67;;;3.50;;
52618;SDS011;38513;53.234;6.568;2023-03-14T02:42:07;17.45;;;3.60;;
52618;SDS011;38513;53.234;6.568;2023-03-14T02:44:33;17.02;;;3.30;;
52618;SDS011;38513;53.234;6.568;2023-03-14T02:47:00;18.30;;;3.77;;
52618;SDS011;38513;53.234;6.568;2023-03-14T02:49:27;20.43;;;3.73;;
52618;SDS011;38513;53.234;6.568;2023-03-14T02:51:54;19.15;;;3.95;;
52618;SDS011;38513;53.234;6.568;2023-03-14T02:54:20;21.25;;;4.13;;
52618;SDS011;38513;53.234;6.568;2023-03-14T02:56:47;19.08;;;4.10;;
52618;SDS011;38513;53.234;6.568;2023-03-14T02:59:13;17.95;;;3.63;;
52618;SDS011;38513;53.234;6.568;2023-03-14T03:01:39;18.65;;;3.90;;
52618;SDS011;38513;53.234;6.568;2023-03-14T03:04:08;16.13;;;3.60;;
52618;SDS011;38513;53.234;6.568;2023-03-14T03:06:37;16.15;;;4.00;;
52618;SDS011;38513;53.234;6.568;2023-03-14T03:09:03;16.33;;;3.92;;
52618;SDS011;38513;53.234;6.568;2023-03-14T03:11:29;16.73;;;4.15;;
52618;SDS011;38513;53.234;6.568;2023-03-14T03:13:56;18.75;;;4.65;;
52618;SDS011;38513;53.234;6.568;2023-03-14T03:16:22;16.90;;;4.32;;
52618;SDS011;38513;53.234;6.568;2023-03-14T03:18:48;16.50;;;4.10;;
52618;SDS011;38513;53.234;6.568;2023-03-14T03:21:15;17.70;;;4.53;;
52618;SDS011;38513;53.234;6.568;2023-03-14T03:23:41;16.90;;;4.65;;
52618;SDS011;38513;53.234;6.568;2023-03-14T03:26:08;16.73;;;4.72;;
52618;SDS011;38513;53.234;6.568;2023-03-14T03:28:35;18.15;;;5.15;;
52618;SDS011;38513;53.234;6.568;2023-03-14T03:31:08;16.80;;;5.03;;
52618;SDS011;38513;53.234;6.568;2023-03-14T03:33:35;19.60;;;5.68;;
52618;SDS011;38513;53.234;6.568;2023-03-14T03:36:01;17.55;;;5.60;;
52618;SDS011;38513;53.234;6.568;2023-03-14T03:38:27;20.23;;;5.20;;
52618;SDS011;38513;53.234;6.568;2023-03-14T03:40:53;23.48;;;6.13;;
52618;SDS011;38513;53.234;6.568;2023-03-14T03:43:19;21.13;;;6.13;;
52618;SDS011;38513;53.234;6.568;2023-03-14T03:45:46;19.98;;;6.05;;
52618;SDS011;38513;53.234;6.568;2023-03-14T03:48:15;20.30;;;5.63;;
52618;SDS011;38513;53.234;6.568;2023-03-14T03:50:45;18.33;;;5.43;;
52618;SDS011;38513;53.234;6.568;2023-03-14T03:53:11;23.00;;;5.97;;
52618;SDS011;38513;53.234;6.568;2023-03-14T03:55:37;21.65;;;6.43;;
52618;SDS011;38513;53.234;6.568;2023-03-14T03:58:03;21.48;;;6.22;;
52618;SDS011;38513;53.234;6.568;2023-03-14T04:00:29;23.27;;;6.18;;
52618;SDS011;38513;53.234;6.568;2023-03-14T04:02:56;21.40;;;6.65;;
52618;SDS011;38513;53.234;6.568;2023-03-14T04:05:22;22.70;;;5.93;;
52618;SDS011;38513;53.234;6.568;2023-03-14T04:07:48;25.50;;;6.38;;
52618;SDS011;38513;53.234;6.568;2023-03-14T04:10:15;22.95;;;6.10;;
52618;SDS011;38513;53.234;6.568;2023-03-14T04:12:41;22.52;;;6.15;;
52618;SDS011;38513;53.234;6.568;2023-03-14T04:15:07;23.03;;;6.20;;
52618;SDS011;38513;53.234;6.568;2023-03-14T04:17:33;28.88;;;6.70;;
52618;SDS011;38513;53.234;6.568;2023-03-14T04:19:59;23.23;;;5.90;;
52618;SDS011;38513;53.234;6.568;2023-03-14T04:22:29;26.17;;;7.10;;
52618;SDS011;38513;53.234;6.568;2023-03-14T04:24:55;24.42;;;7.03;;
52618;SDS011;38513;53.234;6.568;2023-03-14T04:27:21;26.60;;;6.78;;
52618;SDS011;38513;53.234;6.568;2023-03-14T04:29:47;26.77;;;7.13;;
52618;SDS011;38513;53.234;6.568;2023-03-14T04:32:14;26.13;;;6.85;;
52618;SDS011;38513;53.234;6.568;2023-03-14T04:34:40;30.40;;;7.33;;
52618;SDS011;38513;53.234;6.568;2023-03-14T04:37:07;30.65;;;7.40;;
52618;SDS011;38513;53.234;6.568;2023-03-14T04:39:33;29.27;;;8.30;;
52618;SDS011;38513;53.234;6.568;2023-03-14T04:41:59;30.03;;;8.70;;
52618;SDS011;38513;53.234;6.568;2023-03-14T04:44:28;29.88;;;8.20;;
52618;SDS011;38513;53.234;6.568;2023-03-14T04:46:56;23.17;;;9.10;;
52618;SDS011;38513;53.234;6.568;2023-03-14T04:49:22;24.33;;;9.05;;
52618;SDS011;38513;53.234;6.568;2023-03-14T04:51:49;21.77;;;9.35;;
52618;SDS011;38513;53.234;6.568;2023-03-14T04:54:16;25.97;;;9.67;;
52618;SDS011;38513;53.234;6.568;2023-03-14T04:56:42;27.73;;;10.35;;
52618;SDS011;38513;53.234;6.568;2023-03-14T04:59:11;30.17;;;10.77;;
52618;SDS011;38513;53.234;6.568;2023-03-14T05:01:37;28.33;;;12.00;;
52618;SDS011;38513;53.234;6.568;2023-03-14T05:06:48;26.08;;;11.45;;
52618;SDS011;38513;53.234;6.568;2023-03-14T05:09:14;29.02;;;11.75;;
52618;SDS011;38513;53.234;6.568;2023-03-14T05:11:40;26.93;;;11.70;;
52618;SDS011;38513;53.234;6.568;2023-03-14T05:14:07;25.43;;;11.37;;
52618;SDS011;38513;53.234;6.568;2023-03-14T05:16:33;25.48;;;11.27;;
52618;SDS011;38513;53.234;6.568;2023-03-14T05:18:59;22.63;;;11.48;;
52618;SDS011;38513;53.234;6.568;2023-03-14T05:21:26;26.80;;;12.25;;
52618;SDS011;38513;53.234;6.568;2023-03-14T05:23:52;24.77;;;11.70;;
52618;SDS011;38513;53.234;6.568;2023-03-14T05:26:19;24.95;;;11.10;;
52618;SDS011;38513;53.234;6.568;2023-03-14T05:28:45;25.85;;;10.90;;
52618;SDS011;38513;53.234;6.568;2023-03-14T05:31:11;22.08;;;10.60;;
52618;SDS011;38513;53.234;6.568;2023-03-14T05:33:37;23.48;;;9.63;;
52618;SDS011;38513;53.234;6.568;2023-03-14T05:36:03;20.83;;;8.53;;
52618;SDS011;38513;53.234;6.568;2023-03-14T05:38:32;18.63;;;8.90;;
52618;SDS011;38513;53.234;6.568;2023-03-14T05:40:59;22.75;;;9.23;;
52618;SDS011;38513;53.234;6.568;2023-03-14T05:43:25;19.85;;;9.35;;
52618;SDS011;38513;53.234;6.568;2023-03-14T05:45:51;24.80;;;9.98;;
52618;SDS011;38513;53.234;6.568;2023-03-14T05:48:17;22.13;;;9.80;;
52618;SDS011;38513;53.234;6.568;2023-03-14T05:50:45;19.48;;;9.23;;
52618;SDS011;38513;53.234;6.568;2023-03-14T05:53:11;18.27;;;8.70;;
52618;SDS011;38513;53.234;6.568;2023-03-14T05:55:40;18.40;;;8.05;;
52618;SDS011;38513;53.234;6.568;2023-03-14T05:58:06;17.80;;;7.33;;
52618;SDS011;38513;53.234;6.568;2023-03-14T06:00:32;18.95;;;7.78;;
52618;SDS011;38513;53.234;6.568;2023-03-14T06:02:59;18.30;;;7.65;;
52618;SDS011;38513;53.234;6.568;2023-03-14T06:05:25;15.13;;;7.05;;
52618;SDS011;38513;53.234;6.568;2023-03-14T06:08:01;15.40;;;6.97;;
52618;SDS011;38513;53.234;6.568;2023-03-14T06:10:27;12.97;;;5.73;;
52618;SDS011;38513;53.234;6.568;2023-03-14T06:12:53;14.68;;;6.03;;
52618;SDS011;38513;53.234;6.568;2023-03-14T06:15:20;10.90;;;5.15;;
52618;SDS011;38513;53.234;6.568;2023-03-14T06:17:46;12.55;;;5.05;;
52618;SDS011;38513;53.234;6.568;2023-03-14T06:20:12;10.40;;;4.85;;
52618;SDS011;38513;53.234;6.568;2023-03-14T06:22:39;10.95;;;4.50;;
52618;SDS011;38513;53.234;6.568;2023-03-14T06:25:05;12.93;;;3.92;;
52618;SDS011;38513;53.234;6.568;2023-03-14T06:27:32;9.50;;;2.67;;
52618;SDS011;38513;53.234;6.568;2023-03-14T06:29:58;8.25;;;1.77;;
52618;SDS011;38513;53.234;6.568;2023-03-14T06:32:24;7.18;;;1.50;;
52618;SDS011;38513;53.234;6.568;2023-03-14T06:34:50;10.20;;;1.60;;
52618;SDS011;38513;53.234;6.568;2023-03-14T06:37:18;13.27;;;2.22;;
52618;SDS011;38513;53.234;6.568;2023-03-14T06:39:44;22.67;;;3.38;;
52618;SDS011;38513;53.234;6.568;2023-03-14T06:42:10;18.92;;;2.90;;
52618;SDS011;38513;53.234;6.568;2023-03-14T06:44:36;27.25;;;4.28;;
52618;SDS011;38513;53.234;6.568;2023-03-14T06:47:05;31.15;;;4.53;;
52618;SDS011;38513;53.234;6.568;2023-03-14T06:49:33;26.90;;;4.03;;
52618;SDS011;38513;53.234;6.568;2023-03-14T06:51:59;22.90;;;4.00;;
52618;SDS011;38513;53.234;6.568;2023-03-14T06:54:25;23.02;;;3.95;;
52618;SDS011;38513;53.234;6.568;2023-03-14T06:56:51;20.85;;;3.88;;
52618;SDS011;38513;53.234;6.568;2023-03-14T06:59:18;21.67;;;3.90;;
52618;SDS011;38513;53.234;6.568;2023-03-14T07:01:50;17.63;;;2.95;;
52618;SDS011;38513;53.234;6.568;2023-03-14T07:04:17;21.50;;;3.60;;
52618;SDS011;38513;53.234;6.568;2023-03-14T07:06:43;20.27;;;2.90;;
52618;SDS011;38513;53.234;6.568;2023-03-14T07:09:10;16.08;;;2.72;;
52618;SDS011;38513;53.234;6.568;2023-03-14T07:11:36;20.17;;;3.35;;
52618;SDS011;38513;53.234;6.568;2023-03-14T07:14:02;16.35;;;2.72;;
52618;SDS011;38513;53.234;6.568;2023-03-14T07:16:29;15.13;;;2.35;;
52618;SDS011;38513;53.234;6.568;2023-03-14T07:18:58;16.67;;;1.92;;
52618;SDS011;38513;53.234;6.568;2023-03-14T07:21:24;12.63;;;1.85;;
52618;SDS011;38513;53.234;6.568;2023-03-14T07:23:50;10.90;;;1.50;;
52618;SDS011;38513;53.234;6.568;2023-03-14T07:26:16;10.93;;;1.50;;
52618;SDS011;38513;53.234;6.568;2023-03-14T07:28:42;12.67;;;1.30;;
52618;SDS011;38513;53.234;6.568;2023-03-14T07:31:09;10.73;;;1.33;;
52618;SDS011;38513;53.234;6.568;2023-03-14T07:33:35;7.05;;;1.25;;
52618;SDS011;38513;53.234;6.568;2023-03-14T07:36:01;10.23;;;1.50;;
52618;SDS011;38513;53.234;6.568;2023-03-14T07:38:28;10.65;;;1.38;;
52618;SDS011;38513;53.234;6.568;2023-03-14T07:40:58;8.38;;;1.30;;
52618;SDS011;38513;53.234;6.568;2023-03-14T07:43:25;9.40;;;1.08;;
52618;SDS011;38513;53.234;6.568;2023-03-14T07:45:51;9.70;;;1.40;;
52618;SDS011;38513;53.234;6.568;2023-03-14T07:48:17;9.38;;;1.70;;
52618;SDS011;38513;53.234;6.568;2023-03-14T07:50:43;12.27;;;1.70;;
52618;SDS011;38513;53.234;6.568;2023-03-14T07:53:10;11.77;;;1.70;;
52618;SDS011;38513;53.234;6.568;2023-03-14T07:55:36;9.07;;;1.30;;
52618;SDS011;38513;53.234;6.568;2023-03-14T07:58:02;10.57;;;1.30;;
52618;SDS011;38513;53.234;6.568;2023-03-14T08:00:28;8.27;;;1.30;;
52618;SDS011;38513;53.234;6.568;2023-03-14T08:02:54;10.27;;;1.90;;
52618;SDS011;38513;53.234;6.568;2023-03-14T08:05:20;9.17;;;1.00;;
52618;SDS011;38513;53.234;6.568;2023-03-14T08:07:46;10.82;;;1.30;;
52618;SDS011;38513;53.234;6.568;2023-03-14T08:10:12;9.93;;;1.40;;
52618;SDS011;38513;53.234;6.568;2023-03-14T08:12:46;11.35;;;1.10;;
52618;SDS011;38513;53.234;6.568;2023-03-14T08:15:12;10.07;;;1.27;;
52618;SDS011;38513;53.234;6.568;2023-03-14T08:17:38;11.07;;;1.40;;
52618;SDS011;38513;53.234;6.568;2023-03-14T08:20:04;11.52;;;1.63;;
52618;SDS011;38513;53.234;6.568;2023-03-14T08:22:36;11.73;;;1.67;;
52618;SDS011;38513;53.234;6.568;2023-03-14T08:25:02;9.75;;;1.42;;
52618;SDS011;38513;53.234;6.568;2023-03-14T08:27:28;11.48;;;1.60;;
52618;SDS011;38513;53.234;6.568;2023-03-14T08:29:54;12.13;;;1.73;;
52618;SDS011;38513;53.234;6.568;2023-03-14T08:32:20;12.10;;;1.80;;
52618;SDS011;38513;53.234;6.568;2023-03-14T08:34:48;12.97;;;2.43;;
52618;SDS011;38513;53.234;6.568;2023-03-14T08:37:15;14.97;;;2.70;;
52618;SDS011;38513;53.234;6.568;2023-03-14T08:39:41;16.92;;;2.90;;
52618;SDS011;38513;53.234;6.568;2023-03-14T08:42:08;17.55;;;2.75;;
52618;SDS011;38513;53.234;6.568;2023-03-14T08:44:34;17.58;;;2.83;;
52618;SDS011;38513;53.234;6.568;2023-03-14T08:47:00;15.30;;;2.78;;
52618;SDS011;38513;53.234;6.568;2023-03-14T08:49:26;16.70;;;3.30;;
52618;SDS011;38513;53.234;6.568;2023-03-14T08:51:53;17.95;;;2.97;;
52618;SDS011;38513;53.234;6.568;2023-03-14T08:54:19;21.97;;;3.73;;
52618;SDS011;38513;53.234;6.568;2023-03-14T08:56:45;17.25;;;3.33;;
52618;SDS011;38513;53.234;6.568;2023-03-14T08:59:11;19.77;;;3.70;;
52618;SDS011;38513;53.234;6.568;2023-03-14T09:01:37;19.80;;;3.47;;
52618;SDS011;38513;53.234;6.568;2023-03-14T09:04:03;22.08;;;3.97;;
52618;SDS011;38513;53.234;6.568;2023-03-14T09:06:30;21.80;;;3.95;;
52618;SDS011;38513;53.234;6.568;2023-03-14T09:08:56;25.83;;;4.57;;
52618;SDS011;38513;53.234;6.568;2023-03-14T09:11:22;24.10;;;5.00;;
52618;SDS011;38513;53.234;6.568;2023-03-14T09:13:48;24.77;;;4.55;;
52618;SDS011;38513;53.234;6.568;2023-03-14T09:16:14;26.67;;;4.63;;
52618;SDS011;38513;53.234;6.568;2023-03-14T09:18:40;25.10;;;5.25;;
52618;SDS011;38513;53.234;6.568;2023-03-14T09:21:07;25.40;;;4.87;;
52618;SDS011;38513;53.234;6.568;2023-03-14T09:23:33;22.60;;;4.70;;
52618;SDS011;38513;53.234;6.568;2023-03-14T09:25:59;25.20;;;4.60;;
52618;SDS011;38513;53.234;6.568;2023-03-14T09:28:26;26.83;;;4.50;;
52618;SDS011;38513;53.234;6.568;2023-03-14T09:30:52;28.15;;;5.00;;
52618;SDS011;38513;53.234;6.568;2023-03-14T09:33:19;23.05;;;4.35;;
52618;SDS011;38513;53.234;6.568;2023-03-14T09:35:45;26.08;;;4.40;;
52618;SDS011;38513;53.234;6.568;2023-03-14T09:38:12;21.80;;;4.63;;
52618;SDS011;38513;53.234;6.568;2023-03-14T09:40:38;26.20;;;4.50;;
52618;SDS011;38513;53.234;6.568;2023-03-14T09:43:04;27.35;;;5.00;;
52618;SDS011;38513;53.234;6.568;2023-03-14T09:45:37;22.23;;;4.10;;
52618;SDS011;38513;53.234;6.568;2023-03-14T09:48:05;22.95;;;3.88;;
52618;SDS011;38513;53.234;6.568;2023-03-14T09:50:39;24.00;;;4.55;;
52618;SDS011;38513;53.234;6.568;2023-03-14T09:53:07;23.08;;;4.30;;
52618;SDS011;38513;53.234;6.568;2023-03-14T09:55:35;25.02;;;4.70;;
52618;SDS011;38513;53.234;6.568;2023-03-14T09:58:02;30.02;;;5.57;;
52618;SDS011;38513;53.234;6.568;2023-03-14T10:00:30;25.08;;;4.72;;
52618;SDS011;38513;53.234;6.568;2023-03-14T10:02:58;25.75;;;5.10;;
52618;SDS011;38513;53.234;6.568;2023-03-14T10:05:27;26.65;;;4.57;;
52618;SDS011;38513;53.234;6.568;2023-03-14T10:07:54;21.95;;;4.90;;
52618;SDS011;38513;53.234;6.568;2023-03-14T10:10:22;25.40;;;4.45;;
52618;SDS011;38513;53.234;6.568;2023-03-14T10:13:10;28.30;;;4.82;;
52618;SDS011;38513;53.234;6.568;2023-03-14T10:15:35;25.10;;;4.53;;
52618;SDS011;38513;53.234;6.568;2023-03-14T10:18:03;23.52;;;4.90;;
52618;SDS011;38513;53.234;6.568;2023-03-14T10:20:33;23.65;;;4.03;;
52618;SDS011;38513;53.234;6.568;2023-03-14T10:23:07;22.60;;;4.23;;
52618;SDS011;38513;53.234;6.568;2023-03-14T10:25:57;20.55;;;4.10;;
52618;SDS011;38513;53.234;6.568;2023-03-14T10:28:26;20.85;;;4.40;;
52618;SDS011;38513;53.234;6.568;2023-03-14T10:30:54;20.60;;;4.15;;
52618;SDS011;38513;53.234;6.568;2023-03-14T10:33:25;17.85;;;3.20;;
52618;SDS011;38513;53.234;6.568;2023-03-14T10:38:22;17.85;;;3.30;;
52618;SDS011;38513;53.234;6.568;2023-03-14T10:40:50;15.93;;;3.35;;
52618;SDS011;38513;53.234;6.568;2023-03-14T10:43:25;18.08;;;3.22;;
52618;SDS011;38513;53.234;6.568;2023-03-14T10:45:58;15.00;;;3.33;;
52618;SDS011;38513;53.234;6.568;2023-03-14T10:50:57;19.33;;;3.97;;
52618;SDS011;38513;53.234;6.568;2023-03-14T10:53:24;23.23;;;3.72;;
52618;SDS011;38513;53.234;6.568;2023-03-14T10:55:50;15.68;;;3.00;;
52618;SDS011;38513;53.234;6.568;2023-03-14T10:58:18;12.97;;;2.37;;
52618;SDS011;38513;53.234;6.568;2023-03-14T11:00:45;16.40;;;3.35;;
52618;SDS011;38513;53.234;6.568;2023-03-14T11:03:12;17.60;;;3.08;;
52618;SDS011;38513;53.234;6.568;2023-03-14T11:05:57;15.73;;;2.83;;
52618;SDS011;38513;53.234;6.568;2023-03-14T11:08:32;14.10;;;2.50;;
52618;SDS011;38513;53.234;6.568;2023-03-14T11:11:43;13.35;;;2.70;;
52618;SDS011;38513;53.234;6.568;2023-03-14T11:13:55;14.55;;;2.35;;
52618;SDS011;38513;53.234;6.568;2023-03-14T11:16:30;14.63;;;2.67;;
52618;SDS011;38513;53.234;6.568;2023-03-14T11:26:32;9.38;;;2.20;;
52618;SDS011;38513;53.234;6.568;2023-03-14T11:31:34;8.18;;;1.58;;
52618;SDS011;38513;53.234;6.568;2023-03-14T11:39:02;9.75;;;2.05;;
52618;SDS011;38513;53.234;6.568;2023-03-14T11:41:35;11.25;;;2.10;;
52618;SDS011;38513;53.234;6.568;2023-03-14T11:44:04;10.10;;;1.90;;
52618;SDS011;38513;53.234;6.568;2023-03-14T11:46:36;10.20;;;1.83;;
52618;SDS011;38513;53.234;6.568;2023-03-14T11:51:54;14.50;;;2.10;;
52618;SDS011;38513;53.234;6.568;2023-03-14T11:54:31;11.20;;;2.33;;
52618;SDS011;38513;53.234;6.568;2023-03-14T11:57:05;10.30;;;2.03;;
52618;SDS011;38513;53.234;6.568;2023-03-14T11:59:46;11.50;;;2.10;;
52618;SDS011;38513;53.234;6.568;2023-03-14T12:10:43;13.25;;;2.67;;
52618;SDS011;38513;53.234;6.568;2023-03-14T12:13:11;13.07;;;2.40;;
52618;SDS011;38513;53.234;6.568;2023-03-14T12:15:39;15.82;;;2.75;;
52618;SDS011;38513;53.234;6.568;2023-03-14T12:18:14;13.45;;;2.58;;
52618;SDS011;38513;53.234;6.568;2023-03-14T12:20:50;15.55;;;2.85;;
52618;SDS011;38513;53.234;6.568;2023-03-14T12:23:17;14.10;;;2.53;;
52618;SDS011;38513;53.234;6.568;2023-03-14T12:25:43;16.17;;;2.60;;
52618;SDS011;38513;53.234;6.568;2023-03-14T12:28:20;13.90;;;2.28;;
52618;SDS011;38513;53.234;6.568;2023-03-14T12:30:46;15.07;;;2.65;;
52618;SDS011;38513;53.234;6.568;2023-03-14T12:33:19;13.73;;;2.43;;
52618;SDS011;38513;53.234;6.568;2023-03-14T12:41:05;15.05;;;2.90;;
52618;SDS011;38513;53.234;6.568;2023-03-14T12:43:34;14.73;;;2.80;;
52618;SDS011;38513;53.234;6.568;2023-03-14T12:48:34;15.45;;;3.25;;
52618;SDS011;38513;53.234;6.568;2023-03-14T12:51:04;16.33;;;3.08;;
52618;SDS011;38513;53.234;6.568;2023-03-14T12:53:50;13.45;;;2.60;;
52618;SDS011;38513;53.234;6.568;2023-03-14T12:56:22;13.65;;;2.83;;
52618;SDS011;38513;53.234;6.568;2023-03-14T13:01:34;9.32;;;1.85;;
52618;SDS011;38513;53.234;6.568;2023-03-14T13:04:07;9.13;;;1.80;;
52618;SDS011;38513;53.234;6.568;2023-03-14T13:11:54;9.98;;;2.10;;
52618;SDS011;38513;53.234;6.568;2023-03-14T13:14:20;12.00;;;2.20;;
52618;SDS011;38513;53.234;6.568;2023-03-14T13:16:48;10.25;;;2.10;;
52618;SDS011;38513;53.234;6.568;2023-03-14T13:19:16;10.20;;;1.98;;
52618;SDS011;38513;53.234;6.568;2023-03-14T13:21:44;11.80;;;2.23;;
52618;SDS011;38513;53.234;6.568;2023-03-14T13:24:24;9.53;;;2.20;;
52618;SDS011;38513;53.234;6.568;2023-03-14T13:26:52;13.68;;;2.28;;
52618;SDS011;38513;53.234;6.568;2023-03-14T13:31:46;13.30;;;2.10;;
52618;SDS011;38513;53.234;6.568;2023-03-14T13:34:12;10.88;;;2.13;;
52618;SDS011;38513;53.234;6.568;2023-03-14T13:36:39;11.07;;;1.98;;
52618;SDS011;38513;53.234;6.568;2023-03-14T13:39:07;8.77;;;2.22;;
52618;SDS011;38513;53.234;6.568;2023-03-14T13:41:38;10.60;;;2.20;;
52618;SDS011;38513;53.234;6.568;2023-03-14T13:44:08;11.23;;;1.95;;
52618;SDS011;38513;53.234;6.568;2023-03-14T13:46:35;16.35;;;2.58;;
52618;SDS011;38513;53.234;6.568;2023-03-14T13:49:02;11.52;;;2.20;;
52618;SDS011;38513;53.234;6.568;2023-03-14T13:51:29;13.63;;;2.55;;
52618;SDS011;38513;53.234;6.568;2023-03-14T13:53:57;14.38;;;2.35;;
52618;SDS011;38513;53.234;6.568;2023-03-14T13:56:25;12.48;;;2.38;;
52618;SDS011;38513;53.234;6.568;2023-03-14T13:58:52;13.60;;;2.50;;
52618;SDS011;38513;53.234;6.568;2023-03-14T14:01:19;11.73;;;2.10;;
52618;SDS011;38513;53.234;6.568;2023-03-14T14:03:47;11.25;;;2.42;;
52618;SDS011;38513;53.234;6.568;2023-03-14T14:08:52;13.68;;;2.50;;
52618;SDS011;38513;53.234;6.568;2023-03-14T14:11:26;12.90;;;2.40;;
52618;SDS011;38513;53.234;6.568;2023-03-14T14:13:54;11.13;;;2.55;;
52618;SDS011;38513;53.234;6.568;2023-03-14T14:16:21;10.50;;;1.88;;
52618;SDS011;38513;53.234;6.568;2023-03-14T14:18:50;11.03;;;2.00;;
52618;SDS011;38513;53.234;6.568;2023-03-14T14:21:17;11.65;;;2.08;;
52618;SDS011;38513;53.234;6.568;2023-03-14T14:23:43;9.95;;;1.58;;
52618;SDS011;38513;53.234;6.568;2023-03-14T14:26:13;10.75;;;1.90;;
52618;SDS011;38513;53.234;6.568;2023-03-14T14:28:40;10.15;;;1.80;;
52618;SDS011;38513;53.234;6.568;2023-03-14T14:31:22;11.68;;;1.90;;
52618;SDS011;38513;53.234;6.568;2023-03-14T14:41:26;11.90;;;2.30;;
52618;SDS011;38513;53.234;6.568;2023-03-14T14:43:52;15.30;;;2.63;;
52618;SDS011;38513;53.234;6.568;2023-03-14T14:46:19;14.73;;;2.50;;
52618;SDS011;38513;53.234;6.568;2023-03-14T14:48:45;14.85;;;2.78;;
52618;SDS011;38513;53.234;6.568;2023-03-14T14:51:26;13.95;;;2.55;;
52618;SDS011;38513;53.234;6.568;2023-03-14T14:54:10;12.82;;;2.33;;
52618;SDS011;38513;53.234;6.568;2023-03-14T14:56:36;16.88;;;2.95;;
52618;SDS011;38513;53.234;6.568;2023-03-14T14:59:03;14.15;;;2.72;;
52618;SDS011;38513;53.234;6.568;2023-03-14T15:01:39;13.00;;;2.42;;
52618;SDS011;38513;53.234;6.568;2023-03-14T15:04:09;11.93;;;2.15;;
52618;SDS011;38513;53.234;6.568;2023-03-14T15:06:37;9.68;;;1.85;;
52618;SDS011;38513;53.234;6.568;2023-03-14T15:09:04;12.70;;;2.30;;
52618;SDS011;38513;53.234;6.568;2023-03-14T15:11:30;11.95;;;1.90;;
52618;SDS011;38513;53.234;6.568;2023-03-14T15:13:56;9.65;;;2.03;;
52618;SDS011;38513;53.234;6.568;2023-03-14T15:16:23;10.10;;;1.87;;
52618;SDS011;38513;53.234;6.568;2023-03-14T15:18:52;9.25;;;1.48;;
52618;SDS011;38513;53.234;6.568;2023-03-14T15:21:19;11.07;;;1.98;;
52618;SDS011;38513;53.234;6.568;2023-03-14T15:23:45;11.93;;;2.33;;
52618;SDS011;38513;53.234;6.568;2023-03-14T15:26:13;9.73;;;1.90;;
52618;SDS011;38513;53.234;6.568;2023-03-14T15:28:39;8.70;;;1.80;;
52618;SDS011;38513;53.234;6.568;2023-03-14T15:31:09;12.75;;;1.70;;
52618;SDS011;38513;53.234;6.568;2023-03-14T15:33:36;12.68;;;2.03;;
52618;SDS011;38513;53.234;6.568;2023-03-14T15:36:03;11.07;;;2.00;;
52618;SDS011;38513;53.234;6.568;2023-03-14T15:38:29;12.00;;;2.40;;
52618;SDS011;38513;53.234;6.568;2023-03-14T15:40:55;13.35;;;2.50;;
52618;SDS011;38513;53.234;6.568;2023-03-14T15:43:22;12.93;;;2.30;;
52618;SDS011;38513;53.234;6.568;2023-03-14T15:45:48;12.50;;;2.20;;
52618;SDS011;38513;53.234;6.568;2023-03-14T15:48:19;12.85;;;2.08;;